createdAt,value
2022-08-19T00:00:54.961Z,54.71
2022-08-19T00:01:56.605Z,54.07
2022-08-19T00:02:55.425Z,53.44
2022-08-19T00:03:55.016Z,54.12
2022-08-19T00:04:55.620Z,53.79
2022-08-19T00:05:54.860Z,54.50
2022-08-19T00:06:55.257Z,54.04
2022-08-19T00:07:55.047Z,53.63
2022-08-19T00:08:55.021Z,53.10
2022-08-19T00:09:54.946Z,53.14
2022-08-19T00:10:54.861Z,53.35
2022-08-19T00:11:56.743Z,52.92
2022-08-19T00:12:55.044Z,52.89
2022-08-19T00:14:55.378Z,52.01
2022-08-19T00:15:54.916Z,52.37
2022-08-19T00:16:55.813Z,51.60
2022-08-19T00:17:55.660Z,52.00
2022-08-19T00:18:56.624Z,51.96
2022-08-19T00:19:54.963Z,51.95
2022-08-19T00:20:55.528Z,51.77
2022-08-19T00:21:55.521Z,51.31
2022-08-19T00:23:55.999Z,51.59
2022-08-19T00:24:54.878Z,51.58
2022-08-19T00:25:54.893Z,51.31
2022-08-19T00:26:56.287Z,51.00
2022-08-19T00:27:54.843Z,50.67
2022-08-19T00:29:55.045Z,50.18
2022-08-19T00:30:54.871Z,50.61
2022-08-19T00:31:56.900Z,51.32
2022-08-19T00:32:56.355Z,50.18
2022-08-19T00:33:55.096Z,49.79
2022-08-19T00:34:55.169Z,49.38
2022-08-19T00:35:56.698Z,49.33
2022-08-19T00:36:55.024Z,49.49
2022-08-19T00:37:55.689Z,52.06
2022-08-19T00:38:54.965Z,53.18
2022-08-19T00:39:56.999Z,53.96
2022-08-19T00:40:55.079Z,54.27
2022-08-19T00:41:54.901Z,54.23
2022-08-19T00:42:55.106Z,54.81
2022-08-19T00:44:13.737Z,55.10
2022-08-19T00:44:54.920Z,55.29
2022-08-19T00:45:55.123Z,55.20
2022-08-19T00:46:58.094Z,55.05
2022-08-19T00:48:56.478Z,54.58
2022-08-19T00:49:59.948Z,54.93
2022-08-19T00:50:56.715Z,54.79
2022-08-19T00:52:01.967Z,54.83
2022-08-19T00:53:56.834Z,54.29
2022-08-19T00:54:55.530Z,54.46
2022-08-19T00:55:58.040Z,54.39
2022-08-19T00:56:55.268Z,54.29
2022-08-19T00:57:59.784Z,54.18
2022-08-19T00:58:56.629Z,54.45
2022-08-19T01:00:02.662Z,54.55
2022-08-19T01:01:55.096Z,54.05
2022-08-19T01:02:55.377Z,53.59
2022-08-19T01:03:56.843Z,53.60
2022-08-19T01:04:55.671Z,53.73
2022-08-19T01:05:57.036Z,54.08
2022-08-19T01:06:54.956Z,54.02
2022-08-19T01:07:56.203Z,54.18
2022-08-19T01:08:56.308Z,54.64
2022-08-19T01:10:58.474Z,54.70
2022-08-19T01:11:54.938Z,55.07
2022-08-19T01:12:57.206Z,55.09
2022-08-19T01:13:56.404Z,55.50
2022-08-19T01:14:56.409Z,55.19
2022-08-19T01:15:59.085Z,55.45
2022-08-19T01:16:58.007Z,55.66
2022-08-19T01:17:56.860Z,55.05
2022-08-19T01:18:55.160Z,55.25
2022-08-19T01:19:55.139Z,55.25
2022-08-19T01:20:59.170Z,54.72
2022-08-19T01:22:01.178Z,54.74
2022-08-19T01:22:58.295Z,55.08
2022-08-19T01:23:55.202Z,55.24
2022-08-19T01:24:55.323Z,54.90
2022-08-19T01:25:56.876Z,55.03
2022-08-19T01:26:55.877Z,55.42
2022-08-19T01:27:55.423Z,55.78
2022-08-19T01:29:02.258Z,55.72
2022-08-19T01:29:54.830Z,55.84
2022-08-19T01:30:55.658Z,56.18
2022-08-19T01:31:54.900Z,56.28
2022-08-19T01:33:57.497Z,56.61
2022-08-19T01:34:54.884Z,56.76
2022-08-19T01:35:54.895Z,57.03
2022-08-19T01:36:55.283Z,57.18
2022-08-19T01:38:02.016Z,57.07
2022-08-19T01:38:55.125Z,56.66
2022-08-19T01:39:54.925Z,56.52
2022-08-19T01:40:55.114Z,56.31
2022-08-19T01:41:56.284Z,56.56
2022-08-19T01:42:55.789Z,56.62
2022-08-19T01:44:09.866Z,56.92
2022-08-19T01:44:54.823Z,57.17
2022-08-19T01:45:55.327Z,56.55
2022-08-19T01:46:54.931Z,56.21
2022-08-19T01:48:01.930Z,56.45
2022-08-19T01:48:54.949Z,56.49
2022-08-19T01:49:55.111Z,56.53
2022-08-19T01:50:54.832Z,56.01
2022-08-19T01:51:55.863Z,55.95
2022-08-19T01:53:06.179Z,56.34
2022-08-19T01:53:54.974Z,55.79
2022-08-19T01:55:54.809Z,56.57
2022-08-19T01:56:59.426Z,56.73
2022-08-19T01:57:59.694Z,56.93
2022-08-19T01:59:01.441Z,57.05
2022-08-19T02:00:54.819Z,57.17
2022-08-19T02:01:54.811Z,57.25
2022-08-19T02:02:55.292Z,57.31
2022-08-19T02:03:56.830Z,57.37
2022-08-19T02:04:54.951Z,57.34
2022-08-19T02:06:00.670Z,57.68
2022-08-19T02:06:54.966Z,58.04
2022-08-19T02:07:54.820Z,58.31
2022-08-19T02:08:57.599Z,58.56
2022-08-19T02:09:56.078Z,59.04
2022-08-19T02:10:55.342Z,59.14
2022-08-19T02:11:54.846Z,59.14
2022-08-19T02:12:55.079Z,58.78
2022-08-19T02:16:55.009Z,59.45
2022-08-19T02:17:55.103Z,59.50
2022-08-19T02:21:55.189Z,59.71
2022-08-19T02:22:54.911Z,59.75
2022-08-19T02:23:55.033Z,59.63
2022-08-19T02:24:55.738Z,59.41
2022-08-19T02:25:54.790Z,59.01
2022-08-19T02:26:55.083Z,58.88
2022-08-19T02:27:55.171Z,58.97
2022-08-19T02:28:55.730Z,59.02
2022-08-19T02:29:54.881Z,59.02
2022-08-19T02:30:54.861Z,59.19
2022-08-19T02:31:54.855Z,58.51
2022-08-19T02:32:55.116Z,58.13
2022-08-19T02:35:54.820Z,58.19
2022-08-19T02:36:54.836Z,58.03
2022-08-19T02:38:04.144Z,58.19
2022-08-19T02:38:55.858Z,58.19
2022-08-19T02:41:54.928Z,58.87
2022-08-19T02:42:55.123Z,58.87
2022-08-19T02:44:18.354Z,59.02
2022-08-19T02:44:56.890Z,59.29
2022-08-19T02:45:55.199Z,59.65
2022-08-19T02:46:54.793Z,59.79
2022-08-19T02:47:55.037Z,59.84
2022-08-19T02:49:54.801Z,60.46
2022-08-19T02:50:56.690Z,60.79
2022-08-19T02:51:55.489Z,60.92
2022-08-19T02:52:54.923Z,61.06
2022-08-19T02:53:54.978Z,60.96
2022-08-19T02:54:54.769Z,60.77
2022-08-19T02:55:55.289Z,60.52
2022-08-19T02:57:55.241Z,60.45
2022-08-19T02:58:56.535Z,60.53
2022-08-19T03:00:57.201Z,60.53
2022-08-19T03:01:54.755Z,60.61
2022-08-19T03:02:55.408Z,60.57
2022-08-19T03:03:55.488Z,60.63
2022-08-19T03:08:01.311Z,61.07
2022-08-19T03:08:55.300Z,61.06
2022-08-19T03:09:54.713Z,61.10
2022-08-19T03:10:55.257Z,60.85
2022-08-19T03:11:54.756Z,61.14
2022-08-19T03:12:54.785Z,61.13
2022-08-19T03:13:55.967Z,61.29
2022-08-19T03:14:54.782Z,61.28
2022-08-19T03:15:54.738Z,61.48
2022-08-19T03:16:54.993Z,61.58
2022-08-19T03:17:55.517Z,61.53
2022-08-19T03:18:57.566Z,61.77
2022-08-19T03:19:54.928Z,61.83
2022-08-19T03:20:55.609Z,61.76
2022-08-19T03:21:55.004Z,61.73
2022-08-19T03:22:54.734Z,61.80
2022-08-19T03:23:58.429Z,62.00
2022-08-19T03:24:54.900Z,61.95
2022-08-19T03:25:58.351Z,61.75
2022-08-19T03:26:58.403Z,61.75
2022-08-19T03:27:54.748Z,61.75
2022-08-19T03:28:57.840Z,61.69
2022-08-19T03:29:54.897Z,61.72
2022-08-19T03:31:01.432Z,61.73
2022-08-19T03:31:55.854Z,61.81
2022-08-19T03:32:57.317Z,61.99
2022-08-19T03:33:54.854Z,62.25
2022-08-19T03:34:54.750Z,62.42
2022-08-19T03:36:05.036Z,62.61
2022-08-19T03:36:57.165Z,62.84
2022-08-19T03:37:54.889Z,63.04
2022-08-19T03:38:59.768Z,63.25
2022-08-19T03:39:54.803Z,63.42
2022-08-19T03:40:54.729Z,63.55
2022-08-19T03:42:38.481Z,63.72
2022-08-19T03:43:55.677Z,64.09
2022-08-19T03:44:54.731Z,64.27
2022-08-19T03:46:07.765Z,64.41
2022-08-19T03:47:54.926Z,64.58
2022-08-19T03:48:56.839Z,64.67
2022-08-19T03:50:54.762Z,64.79
2022-08-19T03:51:56.718Z,64.81
2022-08-19T03:52:54.818Z,64.92
2022-08-19T03:53:56.687Z,65.04
2022-08-19T03:54:54.862Z,65.05
2022-08-19T03:55:54.908Z,65.14
2022-08-19T03:56:57.257Z,65.20
2022-08-19T03:57:58.642Z,65.28
2022-08-19T03:58:55.609Z,65.27
2022-08-19T03:59:54.786Z,65.22
2022-08-19T04:00:54.819Z,65.28
2022-08-19T04:02:58.675Z,65.32
2022-08-19T04:03:55.752Z,65.27
2022-08-19T04:05:55.167Z,64.70
2022-08-19T04:06:54.945Z,64.68
2022-08-19T04:08:56.747Z,64.88
2022-08-19T04:09:54.800Z,64.97
2022-08-19T04:11:11.127Z,65.06
2022-08-19T04:11:56.896Z,65.08
2022-08-19T04:12:54.908Z,65.11
2022-08-19T04:13:56.107Z,65.15
2022-08-19T04:14:54.743Z,65.20
2022-08-19T04:15:55.514Z,65.26
2022-08-19T04:16:55.266Z,65.31
2022-08-19T04:17:55.942Z,65.41
2022-08-19T04:18:54.797Z,65.60
2022-08-19T04:19:55.833Z,65.75
2022-08-19T04:20:55.281Z,65.88
2022-08-19T04:21:56.943Z,65.92
2022-08-19T04:22:55.501Z,66.02
2022-08-19T04:23:55.371Z,66.11
2022-08-19T04:24:54.741Z,66.12
2022-08-19T04:25:54.721Z,66.19
2022-08-19T04:26:55.209Z,66.27
2022-08-19T04:27:54.792Z,66.36
2022-08-19T04:28:56.684Z,66.47
2022-08-19T04:30:56.205Z,66.58
2022-08-19T04:31:56.714Z,66.61
2022-08-19T04:32:56.121Z,66.74
2022-08-19T04:33:57.888Z,66.74
2022-08-19T04:35:02.764Z,66.72
2022-08-19T04:35:54.928Z,66.74
2022-08-19T04:36:56.460Z,66.80
2022-08-19T04:37:54.754Z,66.86
2022-08-19T04:38:58.777Z,66.93
2022-08-19T04:40:04.110Z,67.04
2022-08-19T04:41:04.066Z,67.11
2022-08-19T04:42:04.062Z,67.20
2022-08-19T04:42:55.460Z,67.25
2022-08-19T04:43:54.776Z,67.30
2022-08-19T04:44:54.965Z,67.40
2022-08-19T04:45:56.467Z,67.51
2022-08-19T04:46:56.211Z,67.60
2022-08-19T04:48:19.808Z,67.69
2022-08-19T04:48:54.739Z,67.77
2022-08-19T04:49:54.809Z,67.90
2022-08-19T04:50:58.745Z,68.03
2022-08-19T04:51:56.345Z,68.15
2022-08-19T04:52:56.657Z,68.22
2022-08-19T04:53:55.130Z,68.27
2022-08-19T04:54:56.460Z,68.33
2022-08-19T04:55:54.794Z,68.45
2022-08-19T04:56:55.528Z,68.57
2022-08-19T04:57:55.732Z,68.73
2022-08-19T04:59:57.470Z,69.04
2022-08-19T05:01:54.693Z,69.17
2022-08-19T05:02:54.950Z,69.25
2022-08-19T05:03:55.011Z,69.29
2022-08-19T05:05:02.145Z,69.39
2022-08-19T05:05:55.522Z,69.50
2022-08-19T05:06:59.451Z,69.62
2022-08-19T05:08:00.418Z,69.71
2022-08-19T05:08:54.786Z,69.78
2022-08-19T05:09:58.111Z,69.78
2022-08-19T05:10:54.747Z,69.84
2022-08-19T05:12:54.874Z,69.95
2022-08-19T05:14:55.478Z,70.02
2022-08-19T05:15:58.200Z,70.13
2022-08-19T05:17:11.461Z,70.17
2022-08-19T05:18:04.048Z,70.18
2022-08-19T05:19:04.877Z,70.28
2022-08-19T05:20:04.252Z,70.37
2022-08-19T05:21:04.083Z,70.47
2022-08-19T05:22:04.568Z,70.56
2022-08-19T05:22:55.219Z,70.67
2022-08-19T05:23:54.734Z,70.82
2022-08-19T05:25:11.682Z,70.83
2022-08-19T05:25:54.818Z,70.82
2022-08-19T05:26:57.768Z,70.82
2022-08-19T05:27:54.729Z,70.82
2022-08-19T05:28:55.260Z,70.80
2022-08-19T05:29:54.701Z,70.84
2022-08-19T05:30:56.671Z,70.88
2022-08-19T05:31:56.381Z,70.87
2022-08-19T05:32:56.772Z,70.87
2022-08-19T05:33:54.738Z,70.87
2022-08-19T05:34:54.831Z,70.91
2022-08-19T05:35:55.377Z,70.94
2022-08-19T05:36:58.222Z,70.95
2022-08-19T05:37:58.897Z,70.92
2022-08-19T05:38:55.308Z,70.86
2022-08-19T05:39:55.906Z,70.77
2022-08-19T05:40:54.701Z,70.73
2022-08-19T05:41:58.708Z,70.71
2022-08-19T05:42:54.707Z,70.68
2022-08-19T05:43:54.710Z,70.70
2022-08-19T05:44:55.213Z,70.66
2022-08-19T05:45:54.657Z,70.68
2022-08-19T05:46:55.266Z,70.70
2022-08-19T05:47:55.385Z,70.68
2022-08-19T05:48:57.319Z,70.65
2022-08-19T05:49:54.799Z,70.63
2022-08-19T05:50:54.749Z,70.62
2022-08-19T05:51:56.443Z,70.53
2022-08-19T05:52:54.992Z,70.54
2022-08-19T05:53:54.745Z,70.62
2022-08-19T05:54:57.073Z,70.65
2022-08-19T05:55:54.671Z,70.68
2022-08-19T05:56:55.628Z,70.69
2022-08-19T05:57:54.702Z,70.68
2022-08-19T05:58:55.368Z,70.70
2022-08-19T05:59:58.737Z,70.70
2022-08-19T06:00:55.916Z,70.72
2022-08-19T06:01:58.115Z,70.79
2022-08-19T06:02:57.697Z,70.84
2022-08-19T06:03:55.371Z,70.86
2022-08-19T06:05:55.454Z,70.94
2022-08-19T06:06:57.447Z,71.01
2022-08-19T06:07:55.497Z,71.04
2022-08-19T06:08:54.671Z,71.11
2022-08-19T06:10:00.998Z,71.22
2022-08-19T06:10:54.954Z,71.32
2022-08-19T06:12:00.030Z,71.43
2022-08-19T06:12:55.343Z,71.51
2022-08-19T06:14:00.225Z,71.63
2022-08-19T06:15:00.524Z,71.72
2022-08-19T06:15:54.669Z,71.79
2022-08-19T06:16:54.657Z,71.87
2022-08-19T06:17:54.913Z,71.96
2022-08-19T06:18:55.767Z,72.03
2022-08-19T06:19:54.730Z,72.10
2022-08-19T06:20:56.177Z,72.16
2022-08-19T06:21:55.195Z,72.24
2022-08-19T06:22:55.316Z,72.32
2022-08-19T06:23:55.643Z,72.33
2022-08-19T06:24:55.264Z,72.40
2022-08-19T06:25:54.687Z,72.48
2022-08-19T06:27:00.753Z,72.55
2022-08-19T06:28:14.112Z,72.60
2022-08-19T06:28:54.974Z,72.69
2022-08-19T06:29:55.194Z,72.76
2022-08-19T06:30:54.714Z,72.83
2022-08-19T06:31:57.435Z,72.91
2022-08-19T06:32:55.114Z,73.01
2022-08-19T06:33:55.186Z,73.07
2022-08-19T06:34:54.689Z,73.15
2022-08-19T06:35:54.667Z,73.25
2022-08-19T06:36:54.972Z,73.32
2022-08-19T06:37:55.257Z,73.41
2022-08-19T06:38:58.073Z,73.49
2022-08-19T06:39:54.680Z,73.55
2022-08-19T06:41:07.787Z,73.64
2022-08-19T06:41:58.963Z,73.74
2022-08-19T06:42:55.441Z,73.81
2022-08-19T06:43:56.464Z,73.87
2022-08-19T06:44:54.739Z,73.92
2022-08-19T06:45:54.614Z,73.98
2022-08-19T06:46:55.666Z,74.05
2022-08-19T06:47:57.174Z,74.12
2022-08-19T06:48:55.516Z,74.18
2022-08-19T06:50:02.754Z,74.25
2022-08-19T06:50:55.007Z,74.35
2022-08-19T06:52:55.526Z,74.51
2022-08-19T06:53:56.428Z,74.56
2022-08-19T06:56:01.058Z,74.68
2022-08-19T06:57:54.934Z,74.80
2022-08-19T06:59:57.532Z,74.95
2022-08-19T07:00:54.684Z,75.00
2022-08-19T07:03:54.859Z,75.20
2022-08-19T07:04:55.096Z,75.20
2022-08-19T07:07:01.191Z,75.26
2022-08-19T07:07:58.206Z,75.29
2022-08-19T07:08:54.648Z,75.34
2022-08-19T07:09:59.147Z,75.40
2022-08-19T07:10:55.650Z,75.44
2022-08-19T07:11:55.946Z,75.50
2022-08-19T07:13:55.932Z,75.62
2022-08-19T07:14:54.674Z,75.64
2022-08-19T07:15:54.840Z,75.72
2022-08-19T07:16:57.197Z,75.76
2022-08-19T07:17:54.672Z,75.83
2022-08-19T07:18:54.962Z,75.90
2022-08-19T07:19:56.437Z,75.98
2022-08-19T07:21:06.112Z,76.03
2022-08-19T07:21:55.388Z,76.11
2022-08-19T07:22:54.859Z,76.17
2022-08-19T07:24:54.657Z,76.31
2022-08-19T07:26:58.213Z,76.41
2022-08-19T07:27:54.716Z,76.47
2022-08-19T07:28:55.441Z,76.53
2022-08-19T07:29:55.834Z,76.56
2022-08-19T07:30:55.468Z,76.62
2022-08-19T07:31:57.756Z,76.68
2022-08-19T07:32:54.715Z,76.74
2022-08-19T07:33:57.997Z,76.81
2022-08-19T07:34:54.794Z,76.87
2022-08-19T07:36:56.009Z,76.99
2022-08-19T07:37:54.860Z,77.03
2022-08-19T07:40:55.412Z,77.12
2022-08-19T07:42:54.753Z,77.17
2022-08-19T07:44:54.621Z,77.20
2022-08-19T07:45:57.558Z,77.24
2022-08-19T07:48:54.598Z,77.24
2022-08-19T07:49:54.629Z,77.24
2022-08-19T07:50:55.822Z,77.26
2022-08-19T07:51:58.511Z,77.27
2022-08-19T07:52:55.012Z,77.33
2022-08-19T07:55:54.718Z,77.36
2022-08-19T07:56:55.060Z,77.39
2022-08-19T07:57:55.099Z,77.41
2022-08-19T07:59:54.617Z,77.43
2022-08-19T08:00:54.662Z,77.42
2022-08-19T08:01:55.059Z,77.44
2022-08-19T08:02:56.070Z,77.49
2022-08-19T08:04:06.074Z,77.52
2022-08-19T08:06:03.978Z,77.55
2022-08-19T08:09:04.102Z,77.54
2022-08-19T08:15:56.080Z,77.41
2022-08-19T08:16:54.898Z,77.42
2022-08-19T08:18:54.557Z,77.40
2022-08-19T08:19:55.324Z,77.41
2022-08-19T08:20:54.766Z,77.43
2022-08-19T08:21:57.228Z,77.44
2022-08-19T08:23:03.906Z,77.43
2022-08-19T08:23:56.862Z,77.40
2022-08-19T08:24:54.658Z,77.40
2022-08-19T08:26:00.051Z,77.41
2022-08-19T08:26:54.725Z,77.43
2022-08-19T08:27:55.331Z,77.44
2022-08-19T08:28:55.098Z,77.44
2022-08-19T08:29:54.583Z,77.45
2022-08-19T08:30:55.420Z,77.45
2022-08-19T08:31:59.657Z,77.44
2022-08-19T08:32:54.706Z,77.44
2022-08-19T08:33:54.717Z,77.44
2022-08-19T08:34:55.274Z,77.48
2022-08-19T08:35:54.590Z,77.50
2022-08-19T08:36:54.753Z,77.52
2022-08-19T08:39:55.677Z,77.52
2022-08-19T08:41:07.683Z,77.51
2022-08-19T08:42:10.305Z,77.54
2022-08-19T08:43:05.718Z,77.52
2022-08-19T08:43:55.325Z,77.50
2022-08-19T08:45:02.558Z,77.59
2022-08-19T08:46:02.514Z,77.68
2022-08-19T08:46:59.372Z,77.75
2022-08-19T08:47:57.673Z,77.77
2022-08-19T08:48:59.560Z,77.77
2022-08-19T08:50:03.079Z,77.78
2022-08-19T08:50:58.285Z,77.87
2022-08-19T08:52:02.191Z,77.92
2022-08-19T08:52:59.795Z,77.97
2022-08-19T08:53:57.016Z,78.03
2022-08-19T08:54:58.797Z,78.08
2022-08-19T08:55:54.630Z,78.15
2022-08-19T08:56:56.253Z,78.21
2022-08-19T08:58:02.902Z,78.28
2022-08-19T08:59:11.148Z,78.30
2022-08-19T08:59:58.622Z,78.34
2022-08-19T09:00:54.840Z,78.43
2022-08-19T09:01:54.759Z,78.53
2022-08-19T09:02:57.028Z,78.57
2022-08-19T09:04:56.492Z,78.67
2022-08-19T09:07:18.151Z,78.70
2022-08-19T09:07:57.945Z,78.73
2022-08-19T09:10:08.470Z,78.78
2022-08-19T09:10:56.820Z,78.80
2022-08-19T09:12:08.514Z,78.81
2022-08-19T09:14:01.759Z,78.86
2022-08-19T09:15:01.695Z,78.91
2022-08-19T09:16:00.858Z,78.93
2022-08-19T09:16:54.603Z,78.93
2022-08-19T09:17:54.708Z,78.95
2022-08-19T09:19:00.136Z,78.97
2022-08-19T09:19:58.044Z,78.99
2022-08-19T09:20:54.706Z,79.03
2022-08-19T09:21:55.019Z,79.09
2022-08-19T09:22:54.619Z,79.12
2022-08-19T09:23:54.767Z,79.17
2022-08-19T09:24:55.576Z,79.25
2022-08-19T09:25:54.709Z,79.31
2022-08-19T09:26:54.596Z,79.40
2022-08-19T09:28:02.551Z,79.43
2022-08-19T09:29:55.440Z,79.53
2022-08-19T09:30:54.588Z,79.59
2022-08-19T09:33:59.238Z,79.68
2022-08-19T09:34:55.975Z,79.68
2022-08-19T09:36:56.314Z,79.71
2022-08-19T09:37:57.653Z,79.71
2022-08-19T09:38:55.004Z,79.75
2022-08-19T09:39:55.583Z,79.75
2022-08-19T09:40:54.554Z,79.83
2022-08-19T09:41:54.776Z,79.82
2022-08-19T09:42:54.770Z,79.84
2022-08-19T09:43:57.293Z,79.95
2022-08-19T09:44:54.536Z,80.00
2022-08-19T09:46:54.617Z,80.06
2022-08-19T09:48:55.945Z,80.15
2022-08-19T09:51:57.214Z,80.40
2022-08-19T09:52:57.178Z,80.44
2022-08-19T09:53:56.009Z,80.45
2022-08-19T09:55:56.559Z,80.55
2022-08-19T09:56:55.785Z,80.59
2022-08-19T09:57:56.501Z,80.64
2022-08-19T09:59:54.649Z,80.70
2022-08-19T10:00:54.987Z,80.75
2022-08-19T10:01:54.921Z,80.76
2022-08-19T10:02:54.588Z,80.71
2022-08-19T10:05:55.573Z,80.86
2022-08-19T10:06:58.242Z,80.84
2022-08-19T10:10:56.073Z,81.03
2022-08-19T10:14:55.650Z,81.09
2022-08-19T10:16:54.601Z,81.31
2022-08-19T10:19:55.693Z,81.29
2022-08-19T10:21:03.394Z,81.32
2022-08-19T10:22:00.085Z,81.35
2022-08-19T10:25:54.894Z,81.49
2022-08-19T10:29:54.853Z,81.68
2022-08-19T10:30:54.758Z,81.77
2022-08-19T10:33:59.328Z,81.79
2022-08-19T10:36:56.242Z,82.00
2022-08-19T10:39:54.554Z,82.11
2022-08-19T10:41:54.587Z,82.17
2022-08-19T10:43:56.560Z,82.25
2022-08-19T10:46:04.992Z,82.26
2022-08-19T10:46:54.619Z,82.28
2022-08-19T10:47:55.251Z,82.27
2022-08-19T10:51:04.135Z,82.27
2022-08-19T10:52:55.177Z,82.29
2022-08-19T10:55:05.268Z,82.42
2022-08-19T10:56:03.839Z,82.42
2022-08-19T10:58:02.341Z,82.43
2022-08-19T10:58:54.592Z,82.48
2022-08-19T10:59:54.481Z,82.43
2022-08-19T11:00:58.299Z,82.46
2022-08-19T11:01:55.810Z,82.51
2022-08-19T11:03:54.575Z,82.61
2022-08-19T11:04:54.575Z,82.63
2022-08-19T11:09:55.012Z,82.70
2022-08-19T11:12:55.869Z,82.72
2022-08-19T11:14:55.684Z,82.74
2022-08-19T11:17:55.602Z,82.83
2022-08-19T11:18:59.459Z,82.82
2022-08-19T11:20:54.659Z,82.87
2022-08-19T11:21:57.631Z,82.90
2022-08-19T11:22:55.766Z,82.94
2022-08-19T11:29:55.360Z,83.03
2022-08-19T11:30:54.577Z,83.04
2022-08-19T11:32:54.494Z,83.05
2022-08-19T11:33:54.918Z,83.12
2022-08-19T11:34:55.550Z,83.11
2022-08-19T11:36:55.697Z,83.08
2022-08-19T11:38:55.396Z,83.09
2022-08-19T11:39:54.811Z,83.12
2022-08-19T11:41:54.582Z,83.14
2022-08-19T11:43:56.270Z,83.21
2022-08-19T11:45:56.501Z,83.25
2022-08-19T11:46:54.630Z,83.26
2022-08-19T11:51:55.324Z,83.32
2022-08-19T11:53:56.442Z,83.32
2022-08-19T11:54:55.005Z,83.32
2022-08-19T11:55:56.993Z,83.33
2022-08-19T11:56:54.425Z,83.34
2022-08-19T11:58:57.755Z,83.37
2022-08-19T11:59:54.751Z,83.39
2022-08-19T12:01:54.595Z,83.45
2022-08-19T12:05:55.854Z,83.54
2022-08-19T12:07:55.787Z,83.55
2022-08-19T12:09:54.476Z,83.57
2022-08-19T12:11:54.551Z,83.57
2022-08-19T12:13:55.398Z,83.60
2022-08-19T12:15:55.216Z,83.61
2022-08-19T12:17:57.612Z,83.62
2022-08-19T12:18:54.609Z,83.64
2022-08-19T12:19:55.109Z,83.67
2022-08-19T12:20:57.217Z,83.68
2022-08-19T12:22:54.517Z,83.72
2022-08-19T12:23:56.099Z,83.74
2022-08-19T12:24:54.951Z,83.75
2022-08-19T12:26:56.490Z,83.82
2022-08-19T12:27:57.540Z,83.83
2022-08-19T12:28:54.738Z,83.84
2022-08-19T12:30:54.484Z,83.91
2022-08-19T12:33:54.644Z,83.98
2022-08-19T12:36:54.546Z,84.00
2022-08-19T12:37:56.677Z,84.00
2022-08-19T12:38:54.609Z,83.99
2022-08-19T12:40:59.630Z,83.99
2022-08-19T12:41:55.268Z,84.00
2022-08-19T12:42:55.062Z,84.01
2022-08-19T12:43:54.422Z,84.00
2022-08-19T12:44:54.538Z,83.98
2022-08-19T12:45:54.479Z,83.94
2022-08-19T12:46:54.405Z,83.93
2022-08-19T12:47:55.248Z,83.92
2022-08-19T12:48:56.223Z,83.94
2022-08-19T12:49:55.996Z,83.95
2022-08-19T12:50:55.326Z,83.96
2022-08-19T12:51:54.460Z,83.95
2022-08-19T12:52:54.425Z,83.94
2022-08-19T12:53:54.405Z,83.95
2022-08-19T12:55:58.479Z,83.99
2022-08-19T12:56:55.137Z,84.01
2022-08-19T12:58:54.537Z,83.99
2022-08-19T12:59:55.060Z,83.97
2022-08-19T13:00:54.558Z,83.93
2022-08-19T13:01:54.557Z,83.91
2022-08-19T13:02:55.007Z,83.94
2022-08-19T13:03:54.432Z,83.98
2022-08-19T13:04:55.032Z,84.00
2022-08-19T13:05:54.436Z,83.98
2022-08-19T13:06:54.478Z,83.94
2022-08-19T13:07:57.303Z,83.90
2022-08-19T13:08:59.434Z,83.87
2022-08-19T13:09:54.891Z,83.90
2022-08-19T13:10:55.440Z,83.94
2022-08-19T13:11:54.433Z,83.97
2022-08-19T13:12:54.442Z,84.03
2022-08-19T13:13:56.381Z,84.07
2022-08-19T13:14:55.346Z,84.12
2022-08-19T13:15:54.437Z,84.13
2022-08-19T13:16:54.487Z,84.17
2022-08-19T13:17:56.896Z,84.17
2022-08-19T13:18:54.407Z,84.14
2022-08-19T13:19:54.567Z,84.05
2022-08-19T13:20:54.438Z,83.98
2022-08-19T13:22:00.264Z,83.92
2022-08-19T13:22:55.360Z,83.88
2022-08-19T13:23:55.234Z,83.84
2022-08-19T13:24:54.502Z,83.88
2022-08-19T13:26:03.822Z,83.92
2022-08-19T13:26:54.398Z,83.98
2022-08-19T13:27:56.248Z,84.03
2022-08-19T13:29:03.771Z,84.08
2022-08-19T13:30:03.756Z,84.13
2022-08-19T13:32:03.739Z,84.26
2022-08-19T13:33:03.908Z,84.30
2022-08-19T13:36:01.564Z,84.38
2022-08-19T13:39:54.433Z,84.35
2022-08-19T13:40:56.316Z,84.38
2022-08-19T13:42:56.544Z,84.44
2022-08-19T13:43:55.382Z,84.48
2022-08-19T13:44:56.277Z,84.54
2022-08-19T13:47:59.422Z,84.73
2022-08-19T13:50:55.350Z,84.92
2022-08-19T13:51:54.412Z,84.96
2022-08-19T13:52:55.871Z,84.96
2022-08-19T13:53:54.615Z,84.95
2022-08-19T13:55:55.103Z,84.91
2022-08-19T13:58:55.212Z,84.75
2022-08-19T13:59:54.394Z,84.70
2022-08-19T14:00:54.557Z,84.69
2022-08-19T14:02:57.269Z,84.78
2022-08-19T14:03:54.501Z,84.82
2022-08-19T14:04:54.616Z,84.85
2022-08-19T14:06:54.427Z,84.84
2022-08-19T14:07:55.005Z,84.79
2022-08-19T14:08:54.478Z,84.78
2022-08-19T14:09:54.372Z,84.74
2022-08-19T14:10:54.402Z,84.74
2022-08-19T14:11:54.313Z,84.79
2022-08-19T14:12:56.832Z,84.84
2022-08-19T14:16:54.424Z,85.02
2022-08-19T14:17:55.375Z,85.10
2022-08-19T14:18:54.658Z,85.19
2022-08-19T14:20:05.827Z,85.24
2022-08-19T14:20:54.950Z,85.29
2022-08-19T14:21:54.349Z,85.31
2022-08-19T14:22:56.235Z,85.30
2022-08-19T14:23:55.080Z,85.33
2022-08-19T14:24:54.294Z,85.36
2022-08-19T14:26:00.807Z,85.38
2022-08-19T14:26:54.397Z,85.39
2022-08-19T14:27:54.618Z,85.39
2022-08-19T14:29:54.621Z,85.37
2022-08-19T14:30:56.524Z,85.35
2022-08-19T14:31:54.372Z,85.34
2022-08-19T14:32:55.179Z,85.36
2022-08-19T14:34:55.735Z,85.37
2022-08-19T14:36:54.599Z,85.36
2022-08-19T14:37:57.219Z,85.34
2022-08-19T14:44:55.006Z,85.18
2022-08-19T14:46:54.656Z,85.12
2022-08-19T14:47:54.846Z,85.09
2022-08-19T14:48:55.305Z,85.09
2022-08-19T14:50:54.402Z,85.11
2022-08-19T14:51:54.357Z,85.11
2022-08-19T14:54:54.500Z,85.10
2022-08-19T14:57:54.441Z,85.07
2022-08-19T14:59:54.423Z,85.04
2022-08-19T15:00:54.342Z,85.05
2022-08-19T15:01:54.430Z,85.04
2022-08-19T15:02:55.758Z,85.04
2022-08-19T15:05:54.729Z,85.00
2022-08-19T15:06:54.359Z,84.95
2022-08-19T15:07:55.616Z,84.94
2022-08-19T15:08:56.101Z,84.91
2022-08-19T15:10:54.600Z,84.91
2022-08-19T15:12:55.855Z,84.94
2022-08-19T15:15:54.912Z,84.89
2022-08-19T15:17:54.384Z,84.84
2022-08-19T15:20:55.235Z,84.78
2022-08-19T15:21:55.885Z,84.72
2022-08-19T15:22:54.273Z,84.66
2022-08-19T15:23:55.125Z,84.60
2022-08-19T15:24:56.069Z,84.62
2022-08-19T15:25:55.930Z,84.62
2022-08-19T15:26:56.866Z,84.61
2022-08-19T15:27:54.564Z,84.57
2022-08-19T15:29:54.732Z,84.54
2022-08-19T15:30:54.470Z,84.51
2022-08-19T15:31:56.316Z,84.51
2022-08-19T15:32:55.825Z,84.51
2022-08-19T15:34:54.978Z,84.50
2022-08-19T15:35:54.356Z,84.43
2022-08-19T15:36:55.117Z,84.38
2022-08-19T15:37:56.860Z,84.33
2022-08-19T15:38:54.297Z,84.35
2022-08-19T15:39:54.320Z,84.37
2022-08-19T15:41:54.544Z,84.30
2022-08-19T15:42:55.358Z,84.23
2022-08-19T15:43:59.732Z,84.17
2022-08-19T15:44:54.304Z,84.09
2022-08-19T15:45:54.270Z,83.99
2022-08-19T15:46:54.413Z,84.04
2022-08-19T15:47:54.429Z,84.09
2022-08-19T15:48:57.231Z,84.16
2022-08-19T15:49:57.706Z,84.18
2022-08-19T15:50:54.226Z,84.18
2022-08-19T15:51:57.816Z,84.17
2022-08-19T15:52:57.125Z,84.24
2022-08-19T15:53:55.390Z,84.31
2022-08-19T15:54:54.290Z,84.43
2022-08-19T15:57:03.655Z,84.58
2022-08-19T15:58:04.573Z,84.57
2022-08-19T16:00:03.740Z,84.49
2022-08-19T16:08:55.728Z,84.49
2022-08-19T16:09:54.284Z,84.54
2022-08-19T16:13:55.379Z,84.53
2022-08-19T16:14:54.651Z,84.54
2022-08-19T16:15:57.235Z,84.50
2022-08-19T16:16:56.931Z,84.44
2022-08-19T16:17:57.139Z,84.41
2022-08-19T16:18:54.232Z,84.37
2022-08-19T16:19:54.513Z,84.40
2022-08-19T16:20:54.279Z,84.42
2022-08-19T16:21:56.565Z,84.50
2022-08-19T16:24:54.307Z,84.48
2022-08-19T16:25:54.303Z,84.48
2022-08-19T16:26:54.659Z,84.49
2022-08-19T16:28:07.467Z,84.51
2022-08-19T16:28:54.253Z,84.50
2022-08-19T16:29:54.342Z,84.48
2022-08-19T16:30:54.664Z,84.39
2022-08-19T16:31:55.552Z,84.29
2022-08-19T16:32:54.233Z,84.28
2022-08-19T16:33:54.866Z,84.30
2022-08-19T16:34:54.260Z,84.32
2022-08-19T16:36:00.065Z,84.36
2022-08-19T16:36:54.288Z,84.43
2022-08-19T16:37:54.431Z,84.60
2022-08-19T16:38:54.901Z,84.70